Caneli — 2BHE7 — position and weather

sailwx.info

Track history (hours):
 
Tides and Currents Weather Stations Pressure Air Temp Water Temp Dewpoint Dewpoint Depression Visibility Wind Speed Wind Dir Waves Ship Positions

Caneli

Last reported at 2017-Apr-24 05:16 UTC. Time now 2017-Apr-26 11:48 UTC.
Position S 30°20' E 031°03'.

Length 43 m; draft 3 m.

Type: Pleasure craft. MMSI: 235065392.

Date/timePositionNaut miles runAvg speedWind from/ knotsBaromVisibWave heightAir tempDewpointWater temp
2017-Apr-24 05:16S 30°20' E 031°03'2 8.7
2017-Apr-24 05:00S 30°19' E 031°04'4 8.9
2017-Apr-24 04:30S 30°15' E 031°07'4 8.9
2017-Apr-24 04:00S 30°12' E 031°11'4 8.9
2017-Apr-24 03:30S 30°08' E 031°14'4 8.8
2017-Apr-24 03:00S 30°05' E 031°17'4 8.3
2017-Apr-24 02:30S 30°01' E 031°20'4 8.7
2017-Apr-24 02:00S 29°58' E 031°23'5 9.5
2017-Apr-24 01:30S 29°54' E 031°26'5 9.6
2017-Apr-24 01:00S 29°50' E 031°29'5 9.5
2017-Apr-24 00:30S 29°46' E 031°32'5 9.4
2017-Apr-24 00:00S 29°43' E 031°36'5 9.2
2017-Apr-23 23:30S 29°39' E 031°40'5 9.9
2017-Apr-23 23:00S 29°36' E 031°43'5 9.7
2017-Apr-23 22:30S 29°32' E 031°47'3610.2
2017-Apr-23 18:55S 29°02' E 032°10'511.3
2017-Apr-23 18:30S 28°58' E 032°13'611.3
2017-Apr-23 18:00S 28°53' E 032°17'  
Track history (hours):
 
Tides and Currents Weather Stations Pressure Air Temp Water Temp Dewpoint Dewpoint Depression Visibility Wind Speed Wind Dir Waves Ship Positions

Caneli

Last reported at 2017-Apr-24 05:16 UTC. Time now 2017-Apr-26 11:48 UTC.
Position S 30°20' E 031°03'.

Length 43 m; draft 3 m.

Type: Pleasure craft. MMSI: 235065392.

Date/timePositionNaut miles runAvg speedWind from/ knotsBaromVisibWave heightAir tempDewpointWater temp
2017-Apr-24 05:16S 30°20' E 031°03'2 8.7
2017-Apr-24 05:00S 30°19' E 031°04'4 8.9
2017-Apr-24 04:30S 30°15' E 031°07'4 8.9
2017-Apr-24 04:00S 30°12' E 031°11'4 8.9
2017-Apr-24 03:30S 30°08' E 031°14'4 8.8
2017-Apr-24 03:00S 30°05' E 031°17'4 8.3
2017-Apr-24 02:30S 30°01' E 031°20'4 8.7
2017-Apr-24 02:00S 29°58' E 031°23'5 9.5
2017-Apr-24 01:30S 29°54' E 031°26'5 9.6
2017-Apr-24 01:00S 29°50' E 031°29'5 9.5
2017-Apr-24 00:30S 29°46' E 031°32'5 9.4
2017-Apr-24 00:00S 29°43' E 031°36'5 9.2
2017-Apr-23 23:30S 29°39' E 031°40'5 9.9
2017-Apr-23 23:00S 29°36' E 031°43'5 9.7
2017-Apr-23 22:30S 29°32' E 031°47'3610.2
2017-Apr-23 18:55S 29°02' E 032°10'511.3
2017-Apr-23 18:30S 28°58' E 032°13'611.3
2017-Apr-23 18:00S 28°53' E 032°17'  

Dump ship's entire track history